Time;durP1;ratioP1;P1;durP2;ratioP2;P2;SDS_P1;SDS_P2;PMS_P1;PMS_P2;Temp;Humidity;BMP_temperature;BMP_pressure;BME280_temperature;BME280_humidity;BME280_pressure;Samples;Min_cycle;Max_cycle;Signal;HPM_P1;HPM_P2
2022/02/04 00:08:47;;;;;;;;;18.25;15.25;;;;;;;;5055118;28;45440;-66
2022/02/04 00:22:58;;;;;;;;;19.00;16.25;;;;;;;;5040996;28;45246;-67
2022/02/04 00:24:54;;;;;;;;;20.25;15.75;;;;;;;;5047061;28;45752;-67
2022/02/04 00:27:23;;;;;;;;;19.25;15.00;;;;;;;;5055156;28;45323;-68
2022/02/04 00:32:20;;;;;;;;;15.75;13.50;;;;;;;;5054351;28;46067;-67
2022/02/04 00:34:51;;;;;;;;;16.50;14.00;;;;;;;;5054596;28;45182;-67
2022/02/04 00:39:48;;;;;;;;;19.00;16.00;;;;;;;;5054786;28;45380;-67
2022/02/04 00:42:14;;;;;;;;;13.50;13.50;;;;;;;;5054891;28;46435;-68
2022/02/04 00:44:41;;;;;;;;;17.00;15.50;;;;;;;;5036349;28;45714;-66
2022/02/04 00:47:20;;;;;;;;;20.00;14.25;;;;;;;;5054135;28;45457;-67
2022/02/04 00:49:59;;;;;;;;;11.00;10.00;;;;;;;;5054732;28;45607;-67
2022/02/04 00:55:13;;;;;;;;;15.00;13.75;;;;;;;;5038739;28;45578;-68
2022/02/04 01:27:54;;;;;;;;;11.25;9.75;;;;;;;;4995572;28;45809;-67
2022/02/04 01:30:26;;;;;;;;;13.00;10.75;;;;;;;;5012133;28;45368;-66
2022/02/04 01:32:51;;;;;;;;;13.00;13.00;;;;;;;;5011783;28;45568;-67
2022/02/04 01:35:16;;;;;;;;;16.00;15.50;;;;;;;;5012198;28;46382;-66
2022/02/04 01:37:41;;;;;;;;;14.75;12.00;;;;;;;;5011932;28;45439;-68
2022/02/04 01:40:07;;;;;;;;;15.75;13.25;;;;;;;;5012093;28;45348;-67
2022/02/04 01:42:32;;;;;;;;;21.75;17.00;;;;;;;;5011745;28;45416;-67
2022/02/04 01:44:57;;;;;;;;;16.00;15.75;;;;;;;;5011393;28;45397;-67
2022/02/04 01:47:22;;;;;;;;;23.75;19.25;;;;;;;;5011694;28;45580;-67
2022/02/04 01:49:47;;;;;;;;;14.75;14.75;;;;;;;;5034371;28;45430;-67
2022/02/04 01:52:13;;;;;;;;;17.50;12.75;;;;;;;;5057540;28;45343;-67
2022/02/04 01:54:38;;;;;;;;;13.50;8.25;;;;;;;;5057712;28;47142;-67
2022/02/04 01:57:03;;;;;;;;;10.00;10.00;;;;;;;;5057464;28;45365;-68
2022/02/04 01:59:29;;;;;;;;;15.75;14.75;;;;;;;;5057035;28;45532;-68
2022/02/04 02:01:54;;;;;;;;;15.75;14.75;;;;;;;;5057212;28;45493;-68
2022/02/04 02:04:19;;;;;;;;;16.00;14.25;;;;;;;;5056527;28;46117;-68
2022/02/04 02:07:01;;;;;;;;;14.00;11.00;;;;;;;;5057290;28;45549;-68
2022/02/04 02:09:49;;;;;;;;;13.25;13.25;;;;;;;;5054146;28;45427;-68
2022/02/04 02:12:17;;;;;;;;;15.00;12.25;;;;;;;;5056517;28;45296;-67
2022/02/04 02:14:42;;;;;;;;;13.25;12.25;;;;;;;;5056613;28;46362;-68
2022/02/04 02:42:07;;;;;;;;;18.75;16.00;;;;;;;;5056494;28;45510;-66
2022/02/04 02:47:14;;;;;;;;;14.25;11.50;;;;;;;;5056448;28;45355;-67
2022/02/04 03:02:49;;;;;;;;;13.00;9.75;;;;;;;;4974615;28;45433;-67
2022/02/04 03:05:14;;;;;;;;;11.75;11.50;;;;;;;;4974461;28;45462;-67
2022/02/04 03:07:39;;;;;;;;;7.00;6.00;;;;;;;;4974280;28;45470;-67
2022/02/04 03:10:05;;;;;;;;;15.00;14.50;;;;;;;;4974565;28;45401;-67
2022/02/04 03:12:31;;;;;;;;;11.50;10.00;;;;;;;;4974567;28;45402;-67
2022/02/04 03:14:57;;;;;;;;;14.25;11.00;;;;;;;;4974595;28;45523;-66
2022/02/04 03:17:22;;;;;;;;;17.50;10.75;;;;;;;;4973790;28;46282;-66
2022/02/04 03:19:51;;;;;;;;;8.25;8.25;;;;;;;;4974011;28;45559;-66
2022/02/04 03:22:16;;;;;;;;;10.50;10.00;;;;;;;;4974059;28;45483;-66
2022/02/04 03:24:48;;;;;;;;;9.25;7.50;;;;;;;;5055694;28;45348;-67
2022/02/04 03:27:14;;;;;;;;;12.00;12.00;;;;;;;;5055801;28;47147;-67
2022/02/04 03:30:03;;;;;;;;;12.75;7.25;;;;;;;;5055590;28;45335;-67
2022/02/04 03:32:29;;;;;;;;;10.50;7.50;;;;;;;;5055289;28;45380;-66
2022/02/04 03:34:54;;;;;;;;;8.25;7.25;;;;;;;;5055549;28;45474;-68
2022/02/04 03:37:19;;;;;;;;;10.00;7.00;;;;;;;;5055385;28;47003;-67
2022/02/04 03:39:45;;;;;;;;;8.75;8.75;;;;;;;;5055802;28;45415;-67
2022/02/04 03:42:10;;;;;;;;;7.50;6.50;;;;;;;;5055981;28;45367;-67
2022/02/04 03:44:36;;;;;;;;;11.25;7.00;;;;;;;;5055441;28;45329;-66
2022/02/04 03:47:01;;;;;;;;;6.50;5.50;;;;;;;;5055184;28;47289;-67
2022/02/04 03:49:26;;;;;;;;;13.50;11.25;;;;;;;;5055447;28;45427;-68
2022/02/04 03:51:52;;;;;;;;;9.75;8.25;;;;;;;;5055258;28;45302;-68
2022/02/04 03:54:17;;;;;;;;;12.50;10.50;;;;;;;;5055401;28;45175;-67
2022/02/04 03:56:42;;;;;;;;;11.75;10.50;;;;;;;;5054385;28;45465;-68
2022/02/04 03:59:07;;;;;;;;;13.00;12.00;;;;;;;;5054722;28;45444;-68
2022/02/04 04:01:32;;;;;;;;;9.50;9.00;;;;;;;;5054702;28;45299;-67
2022/02/04 04:03:58;;;;;;;;;8.75;7.75;;;;;;;;5054842;28;45179;-67
2022/02/04 04:06:23;;;;;;;;;13.50;9.00;;;;;;;;5055665;28;46854;-67
2022/02/04 04:08:52;;;;;;;;;18.00;13.50;;;;;;;;5054938;28;45325;-67
2022/02/04 04:11:17;;;;;;;;;16.50;13.50;;;;;;;;5053732;28;45458;-66
2022/02/04 04:13:43;;;;;;;;;16.75;13.00;;;;;;;;5054808;28;45333;-67
2022/02/04 04:16:08;;;;;;;;;13.25;13.25;;;;;;;;5054569;28;46018;-67
2022/02/04 04:18:33;;;;;;;;;12.75;10.25;;;;;;;;5054632;28;45359;-67
2022/02/04 04:21:01;;;;;;;;;11.25;11.25;;;;;;;;5054789;28;45354;-67
2022/02/04 04:23:26;;;;;;;;;15.50;12.25;;;;;;;;5054022;28;45541;-67
2022/02/04 04:25:51;;;;;;;;;15.50;15.00;;;;;;;;5053680;28;46306;-66
2022/02/04 04:28:16;;;;;;;;;14.50;13.00;;;;;;;;5054222;28;45535;-66
2022/02/04 04:30:42;;;;;;;;;11.50;9.50;;;;;;;;5054863;28;45268;-67
2022/02/04 04:33:07;;;;;;;;;15.50;13.00;;;;;;;;5055281;28;45353;-67
2022/02/04 04:35:32;;;;;;;;;13.50;12.00;;;;;;;;5053817;28;47012;-68
2022/02/04 04:38:27;;;;;;;;;15.25;10.50;;;;;;;;5054320;28;45320;-68
2022/02/04 04:41:15;;;;;;;;;21.75;16.00;;;;;;;;5054264;28;45156;-68
2022/02/04 04:44:07;;;;;;;;;22.50;20.75;;;;;;;;5053919;28;45522;-68
2022/02/04 05:29:39;;;;;;;;;15.75;15.00;;;;;;;;5056686;28;45251;-67
2022/02/04 05:32:05;;;;;;;;;18.25;17.25;;;;;;;;5056291;28;45307;-68
2022/02/04 05:34:31;;;;;;;;;19.50;11.75;;;;;;;;5056684;28;45341;-67
2022/02/04 05:37:03;;;;;;;;;20.00;16.25;;;;;;;;5056853;28;45376;-67
2022/02/04 05:39:35;;;;;;;;;21.00;19.25;;;;;;;;5053005;28;45564;-66
2022/02/04 05:42:03;;;;;;;;;17.00;15.50;;;;;;;;5056319;28;45449;-68
2022/02/04 05:44:28;;;;;;;;;11.25;10.50;;;;;;;;5056126;28;45419;-67
2022/02/04 05:46:59;;;;;;;;;20.00;18.75;;;;;;;;5056501;28;45602;-68
2022/02/04 05:49:28;;;;;;;;;19.50;17.50;;;;;;;;5056164;28;46424;-67
2022/02/04 05:52:11;;;;;;;;;22.75;20.00;;;;;;;;5056470;28;45363;-68
2022/02/04 05:54:48;;;;;;;;;18.50;15.75;;;;;;;;5054307;28;45324;-66
2022/02/04 05:57:20;;;;;;;;;27.25;21.00;;;;;;;;5037835;28;45611;-68
2022/02/04 06:02:46;;;;;;;;;26.50;24.75;;;;;;;;5056220;28;45439;-67
2022/02/04 06:05:29;;;;;;;;;20.00;17.50;;;;;;;;5055770;28;45348;-69
2022/02/04 06:08:24;;;;;;;;;22.00;18.00;;;;;;;;5055617;28;45354;-68
2022/02/04 06:11:09;;;;;;;;;20.00;19.25;;;;;;;;5055472;28;45800;-68
2022/02/04 06:24:34;;;;;;;;;18.50;16.00;;;;;;;;4974070;28;45303;-67
2022/02/04 06:26:59;;;;;;;;;30.25;23.50;;;;;;;;4974407;28;45331;-67
2022/02/04 06:29:24;;;;;;;;;23.00;20.25;;;;;;;;4973514;28;45413;-67
2022/02/04 06:31:49;;;;;;;;;21.00;19.50;;;;;;;;4973101;28;45437;-67
2022/02/04 06:34:15;;;;;;;;;18.75;16.00;;;;;;;;4971949;28;45433;-67
2022/02/04 06:36:40;;;;;;;;;22.00;21.00;;;;;;;;4973685;28;45355;-68
2022/02/04 06:39:06;;;;;;;;;30.50;25.25;;;;;;;;4971448;28;45338;-68
2022/02/04 06:41:31;;;;;;;;;26.50;24.25;;;;;;;;4972699;28;46314;-68
2022/02/04 06:43:56;;;;;;;;;18.25;15.50;;;;;;;;4973280;28;46004;-68
2022/02/04 06:46:21;;;;;;;;;25.00;20.00;;;;;;;;4972885;28;45503;-68
2022/02/04 06:48:48;;;;;;;;;20.75;19.50;;;;;;;;4972486;28;45445;-70
2022/02/04 06:51:13;;;;;;;;;18.50;17.25;;;;;;;;4972775;28;47373;-67
2022/02/04 06:53:38;;;;;;;;;23.00;21.75;;;;;;;;5039832;28;45571;-67
2022/02/04 06:56:04;;;;;;;;;22.50;21.50;;;;;;;;5055129;28;46464;-68
2022/02/04 06:58:29;;;;;;;;;25.75;22.75;;;;;;;;5054722;28;45494;-68
2022/02/04 07:00:56;;;;;;;;;18.25;18.25;;;;;;;;5055162;28;45672;-68
2022/02/04 07:03:21;;;;;;;;;19.75;19.25;;;;;;;;5054886;28;45376;-67
2022/02/04 07:05:56;;;;;;;;;18.00;14.25;;;;;;;;5049866;28;45911;-69
2022/02/04 07:08:27;;;;;;;;;16.25;14.75;;;;;;;;5051837;28;45467;-67
2022/02/04 07:11:06;;;;;;;;;26.75;22.50;;;;;;;;5053704;28;46285;-69
2022/02/04 07:21:34;;;;;;;;;19.50;18.75;;;;;;;;5004961;28;45915;-70
2022/02/04 07:23:59;;;;;;;;;19.25;19.25;;;;;;;;5010351;28;45504;-70
2022/02/04 07:26:25;;;;;;;;;29.00;19.50;;;;;;;;5011469;28;45858;-69
2022/02/04 07:28:50;;;;;;;;;22.75;20.00;;;;;;;;5011549;28;45524;-69
2022/02/04 07:31:16;;;;;;;;;23.25;21.25;;;;;;;;5010856;28;46072;-68
2022/02/04 07:33:48;;;;;;;;;17.25;15.75;;;;;;;;5010985;28;45543;-68
2022/02/04 07:41:38;;;;;;;;;19.25;19.25;;;;;;;;5010765;28;47380;-69
2022/02/04 07:44:03;;;;;;;;;20.75;15.50;;;;;;;;5010985;28;45503;-69
2022/02/04 07:46:29;;;;;;;;;20.75;17.00;;;;;;;;5010813;28;45318;-71
2022/02/04 07:48:54;;;;;;;;;22.50;21.00;;;;;;;;4995191;28;45406;-69
2022/02/04 07:51:19;;;;;;;;;23.25;16.50;;;;;;;;5011050;28;45436;-68
2022/02/04 07:53:45;;;;;;;;;15.00;14.00;;;;;;;;5040861;28;45295;-69
2022/02/04 07:56:10;;;;;;;;;22.00;19.00;;;;;;;;5052631;28;45317;-69
2022/02/04 07:58:35;;;;;;;;;25.00;25.00;;;;;;;;5053224;28;45361;-68
2022/02/04 08:01:03;;;;;;;;;16.75;15.50;;;;;;;;5053107;28;46525;-68
2022/02/04 08:03:44;;;;;;;;;27.25;22.00;;;;;;;;5053385;28;45442;-68
2022/02/04 08:06:13;;;;;;;;;18.25;14.25;;;;;;;;5051827;28;45402;-68
2022/02/04 08:08:47;;;;;;;;;18.00;15.00;;;;;;;;5048662;28;45518;-68
2022/02/04 08:11:42;;;;;;;;;13.25;13.25;;;;;;;;5049357;28;47316;-68
2022/02/04 08:14:20;;;;;;;;;15.75;14.25;;;;;;;;5050020;28;45320;-69
2022/02/04 08:17:04;;;;;;;;;19.50;16.50;;;;;;;;5052919;28;45584;-69
2022/02/04 08:19:56;;;;;;;;;17.25;13.75;;;;;;;;5052941;28;45543;-67
2022/02/04 08:25:12;;;;;;;;;19.50;12.75;;;;;;;;5052562;28;45544;-68
2022/02/04 08:50:46;;;;;;;;;19.25;16.75;;;;;;;;5052325;28;45256;-66
2022/02/04 08:55:58;;;;;;;;;15.75;14.00;;;;;;;;5051684;28;45552;-66
2022/02/04 09:01:06;;;;;;;;;17.25;13.50;;;;;;;;5035839;28;45391;-66
2022/02/04 09:06:15;;;;;;;;;22.25;15.50;;;;;;;;5052463;28;45400;-67
2022/02/04 09:08:47;;;;;;;;;18.50;16.00;;;;;;;;5051512;28;45316;-66
2022/02/04 09:11:27;;;;;;;;;10.25;10.25;;;;;;;;5051890;28;45510;-67
2022/02/04 09:17:00;;;;;;;;;16.00;15.00;;;;;;;;5051892;28;45364;-66
2022/02/04 09:19:28;;;;;;;;;14.00;13.00;;;;;;;;5052395;28;45520;-67
2022/02/04 09:24:22;;;;;;;;;13.75;13.75;;;;;;;;5051755;28;45407;-66
2022/02/04 09:26:48;;;;;;;;;16.25;13.25;;;;;;;;5051255;28;45304;-67
2022/02/04 09:29:13;;;;;;;;;16.00;10.75;;;;;;;;5050965;28;45402;-66
2022/02/04 09:31:39;;;;;;;;;13.00;9.75;;;;;;;;5052244;28;45489;-65
2022/02/04 09:34:05;;;;;;;;;12.75;11.25;;;;;;;;5051920;28;46096;-66
2022/02/04 09:36:31;;;;;;;;;12.50;12.25;;;;;;;;5052400;28;45344;-66
2022/02/04 09:38:58;;;;;;;;;12.75;10.50;;;;;;;;5051520;28;45450;-65
2022/02/04 09:41:23;;;;;;;;;18.00;15.25;;;;;;;;5052552;28;45623;-66
2022/02/04 09:43:48;;;;;;;;;15.75;15.00;;;;;;;;5050648;28;46283;-66
2022/02/04 09:46:14;;;;;;;;;13.00;9.50;;;;;;;;5051836;28;45259;-64
2022/02/04 09:48:42;;;;;;;;;13.00;10.25;;;;;;;;5052553;28;45353;-65
2022/02/04 09:51:07;;;;;;;;;8.00;7.00;;;;;;;;5050038;28;45633;-66
2022/02/04 10:04:54;;;;;;;;;14.50;10.25;;;;;;;;5050602;28;45690;-66
2022/02/04 10:10:09;;;;;;;;;14.75;13.50;;;;;;;;5051943;28;45596;-66
2022/02/04 10:17:56;;;;;;;;;14.50;12.75;;;;;;;;5054795;28;45245;-66
2022/02/04 10:20:23;;;;;;;;;11.50;7.50;;;;;;;;5055110;28;45591;-66
2022/02/04 10:22:49;;;;;;;;;8.25;8.25;;;;;;;;5054719;28;45343;-65
2022/02/04 10:25:15;;;;;;;;;8.50;6.00;;;;;;;;5053732;28;46854;-67
2022/02/04 10:27:43;;;;;;;;;9.00;9.00;;;;;;;;5054097;28;45361;-66
2022/02/04 10:30:15;;;;;;;;;14.00;10.25;;;;;;;;5052934;28;45387;-67
2022/02/04 10:32:48;;;;;;;;;8.50;8.50;;;;;;;;5054491;28;45387;-68
2022/02/04 10:35:16;;;;;;;;;7.00;7.00;;;;;;;;5052903;28;46215;-66
2022/02/04 10:38:06;;;;;;;;;9.00;7.00;;;;;;;;5052141;28;45479;-69
2022/02/04 10:40:59;;;;;;;;;10.75;9.50;;;;;;;;5052765;28;45497;-68
2022/02/04 10:44:19;;;;;;;;;7.50;7.00;;;;;;;;5054150;28;45403;-68
2022/02/04 10:52:14;;;;;;;;;5.25;5.00;;;;;;;;5051630;28;45559;-69
2022/02/04 11:00:14;;;;;;;;;8.00;8.00;;;;;;;;5053930;28;45482;-70
2022/02/04 11:34:57;;;;;;;;;9.25;8.00;;;;;;;;5050302;28;45464;-69
2022/02/04 11:48:40;;;;;;;;;6.50;5.50;;;;;;;;5050901;28;45450;-70
2022/02/04 11:56:56;;;;;;;;;3.50;3.25;;;;;;;;5051014;28;45287;-69
2022/02/04 11:59:34;;;;;;;;;8.75;7.00;;;;;;;;5048876;28;45507;-69
2022/02/04 12:01:59;;;;;;;;;1.50;1.25;;;;;;;;5049314;28;47117;-69
2022/02/04 12:04:24;;;;;;;;;5.00;4.00;;;;;;;;5049281;28;45310;-68
2022/02/04 12:06:50;;;;;;;;;7.25;6.50;;;;;;;;5051601;28;45528;-69
2022/02/04 12:09:33;;;;;;;;;3.00;3.00;;;;;;;;5052799;28;45468;-69
2022/02/04 12:11:59;;;;;;;;;3.00;3.00;;;;;;;;5045562;28;47093;-71
2022/02/04 12:14:35;;;;;;;;;4.25;4.25;;;;;;;;5026929;28;45615;-69
2022/02/04 12:17:08;;;;;;;;;10.50;5.00;;;;;;;;5049928;28;45540;-69
2022/02/04 12:19:34;;;;;;;;;2.50;0.75;;;;;;;;5049011;28;45339;-68
2022/02/04 12:21:59;;;;;;;;;4.25;3.00;;;;;;;;5048855;28;45296;-69
2022/02/04 12:24:31;;;;;;;;;2.75;2.00;;;;;;;;5052734;28;45454;-69
2022/02/04 12:27:35;;;;;;;;;5.00;5.00;;;;;;;;5049486;28;45245;-71
2022/02/04 12:30:20;;;;;;;;;4.50;4.50;;;;;;;;4989807;28;45425;-68
2022/02/04 12:32:45;;;;;;;;;6.00;4.50;;;;;;;;4988801;28;47321;-70
2022/02/04 12:35:15;;;;;;;;;1.00;1.00;;;;;;;;4989368;28;45415;-68
2022/02/04 12:37:45;;;;;;;;;3.25;2.00;;;;;;;;4989272;28;45460;-70
2022/02/04 12:40:10;;;;;;;;;2.00;1.00;;;;;;;;4988801;28;45595;-70
2022/02/04 12:42:36;;;;;;;;;3.50;3.50;;;;;;;;4989147;28;46157;-69
2022/02/04 12:45:11;;;;;;;;;1.75;1.75;;;;;;;;4990119;28;45518;-70
2022/02/04 12:47:36;;;;;;;;;3.00;2.00;;;;;;;;4964248;28;45573;-70
2022/02/04 12:50:07;;;;;;;;;2.25;1.00;;;;;;;;4982658;28;45868;-70
2022/02/04 12:52:43;;;;;;;;;4.25;2.50;;;;;;;;4988564;28;46290;-70
2022/02/04 12:55:13;;;;;;;;;1.50;1.50;;;;;;;;4989111;28;45484;-70
2022/02/04 12:57:56;;;;;;;;;3.25;2.00;;;;;;;;4989752;28;45474;-70
2022/02/04 13:03:14;;;;;;;;;3.00;2.25;;;;;;;;4995985;28;45542;-70
2022/02/04 13:10:56;;;;;;;;;3.00;1.75;;;;;;;;5053269;28;45486;-67
2022/02/04 13:13:21;;;;;;;;;2.75;1.50;;;;;;;;5053372;28;47318;-70
2022/02/04 13:15:47;;;;;;;;;0.75;0.75;;;;;;;;5053705;28;45482;-69
2022/02/04 13:18:13;;;;;;;;;6.00;2.00;;;;;;;;5052594;28;45442;-69
2022/02/04 13:20:40;;;;;;;;;2.50;1.50;;;;;;;;5052452;28;45447;-70
2022/02/04 13:23:24;;;;;;;;;1.25;1.25;;;;;;;;5052846;28;45503;-70
2022/02/04 13:25:51;;;;;;;;;2.50;1.50;;;;;;;;5052956;28;45464;-70
2022/02/04 13:28:17;;;;;;;;;0.50;0.00;;;;;;;;5053598;28;45366;-70
2022/02/04 13:31:03;;;;;;;;;0.00;0.00;;;;;;;;5054020;28;45444;-70
2022/02/04 13:33:45;;;;;;;;;0.00;0.00;;;;;;;;5049829;28;45417;-69
2022/02/04 13:41:39;;;;;;;;;1.00;1.00;;;;;;;;5033876;28;45491;-71
2022/02/04 13:46:55;;;;;;;;;2.25;1.00;;;;;;;;5054967;28;45510;-71
2022/02/04 13:52:35;;;;;;;;;1.00;1.00;;;;;;;;5001594;28;45328;-71
2022/02/04 13:58:06;;;;;;;;;0.75;0.75;;;;;;;;4953810;28;45630;-70
2022/02/04 14:00:47;;;;;;;;;1.50;0.50;;;;;;;;4953813;28;45278;-70
2022/02/04 14:03:15;;;;;;;;;3.25;3.00;;;;;;;;4952313;28;45392;-73
2022/02/04 14:05:47;;;;;;;;;1.25;1.25;;;;;;;;4943370;28;46108;-69
2022/02/04 14:08:17;;;;;;;;;2.50;1.00;;;;;;;;4947097;28;45449;-70
2022/02/04 14:10:54;;;;;;;;;2.00;0.25;;;;;;;;4943088;28;45411;-69
2022/02/04 14:13:24;;;;;;;;;1.00;1.00;;;;;;;;4951997;28;45578;-70
2022/02/04 14:15:57;;;;;;;;;1.00;1.00;;;;;;;;4947753;28;45600;-71
2022/02/04 14:18:23;;;;;;;;;2.00;0.00;;;;;;;;4952206;28;45359;-70
2022/02/04 14:20:48;;;;;;;;;2.00;2.00;;;;;;;;4942709;28;45484;-70
2022/02/04 14:23:14;;;;;;;;;1.00;1.00;;;;;;;;4947406;28;45386;-72
2022/02/04 14:26:00;;;;;;;;;0.75;0.50;;;;;;;;4961715;28;45536;-70
2022/02/04 14:31:12;;;;;;;;;1.50;1.50;;;;;;;;4988597;28;45305;-70
2022/02/04 15:00:45;;;;;;;;;2.00;2.00;;;;;;;;5052355;28;45675;-71
2022/02/04 15:05:43;;;;;;;;;0.50;0.00;;;;;;;;5053271;28;45511;-70
2022/02/04 15:08:12;;;;;;;;;2.50;0.25;;;;;;;;5053097;28;45387;-71
2022/02/04 15:10:39;;;;;;;;;3.00;1.00;;;;;;;;5053236;28;45481;-70
2022/02/04 15:13:12;;;;;;;;;1.00;1.00;;;;;;;;5052696;28;45620;-72
2022/02/04 15:15:37;;;;;;;;;1.25;0.00;;;;;;;;5053477;28;45457;-69
2022/02/04 15:18:02;;;;;;;;;1.00;1.00;;;;;;;;5053632;28;47259;-71
2022/02/04 15:20:28;;;;;;;;;0.50;0.50;;;;;;;;5052807;28;45481;-72
2022/02/04 15:22:53;;;;;;;;;1.00;1.00;;;;;;;;5053221;28;45414;-71
2022/02/04 15:25:21;;;;;;;;;4.50;4.50;;;;;;;;5054044;28;45493;-70
2022/02/04 15:28:08;;;;;;;;;1.25;1.25;;;;;;;;5053084;28;46309;-70
2022/02/04 15:30:38;;;;;;;;;1.50;1.00;;;;;;;;5050470;28;45429;-70
2022/02/04 15:33:03;;;;;;;;;0.00;0.00;;;;;;;;5053047;28;45538;-70
2022/02/04 15:35:30;;;;;;;;;2.00;0.00;;;;;;;;5052915;28;45466;-71
2022/02/04 15:37:56;;;;;;;;;0.75;0.00;;;;;;;;5053617;28;46360;-70
2022/02/04 15:40:21;;;;;;;;;0.00;0.00;;;;;;;;5053176;28;45588;-70
2022/02/04 15:42:55;;;;;;;;;1.00;0.00;;;;;;;;5053735;28;45609;-70
2022/02/04 15:51:03;;;;;;;;;1.00;1.00;;;;;;;;5053858;28;45257;-70
2022/02/04 15:58:53;;;;;;;;;1.75;1.00;;;;;;;;5053706;28;45567;-70
2022/02/04 16:01:35;;;;;;;;;3.00;3.00;;;;;;;;5052778;28;45507;-69
2022/02/04 16:04:23;;;;;;;;;2.00;0.75;;;;;;;;5048387;28;45315;-69
2022/02/04 16:06:49;;;;;;;;;1.00;0.50;;;;;;;;5051894;28;45364;-71
2022/02/04 16:09:16;;;;;;;;;5.50;5.50;;;;;;;;5053230;28;47025;-71
2022/02/04 16:14:52;;;;;;;;;2.00;2.00;;;;;;;;5052163;28;45396;-70
2022/02/04 16:17:20;;;;;;;;;3.50;1.00;;;;;;;;5051189;28;45743;-71
2022/02/04 16:19:48;;;;;;;;;1.00;0.00;;;;;;;;5035649;28;47041;-71
2022/02/04 16:22:29;;;;;;;;;0.00;0.00;;;;;;;;5054009;28;45367;-71
2022/02/04 16:25:14;;;;;;;;;0.00;0.00;;;;;;;;5052825;28;45332;-71
2022/02/04 16:30:05;;;;;;;;;3.00;0.50;;;;;;;;5052645;28;45532;-70
2022/02/04 16:32:31;;;;;;;;;1.25;1.25;;;;;;;;5052615;28;45946;-71
2022/02/04 16:34:57;;;;;;;;;3.50;3.50;;;;;;;;5052765;28;45373;-70
2022/02/04 16:37:32;;;;;;;;;2.00;2.00;;;;;;;;5052591;28;45345;-70
2022/02/04 16:39:58;;;;;;;;;3.00;1.00;;;;;;;;5032576;28;47297;-71
2022/02/04 16:42:23;;;;;;;;;3.00;3.00;;;;;;;;5053696;28;46088;-70
2022/02/04 16:44:48;;;;;;;;;2.00;2.00;;;;;;;;5033339;28;45602;-69
2022/02/04 16:47:14;;;;;;;;;5.00;5.00;;;;;;;;5053058;28;45549;-71
2022/02/04 16:49:39;;;;;;;;;2.00;2.00;;;;;;;;5052336;28;45359;-69
2022/02/04 16:52:05;;;;;;;;;1.00;1.00;;;;;;;;5052748;28;45397;-70
2022/02/04 16:54:33;;;;;;;;;2.75;2.75;;;;;;;;5053048;28;45517;-70
2022/02/04 16:57:00;;;;;;;;;6.00;6.00;;;;;;;;5052944;28;45673;-69
2022/02/04 16:59:25;;;;;;;;;5.25;5.25;;;;;;;;5052250;28;45411;-69
2022/02/04 17:01:50;;;;;;;;;0.75;0.75;;;;;;;;5052499;28;45332;-72
2022/02/04 17:04:16;;;;;;;;;4.50;4.50;;;;;;;;5052901;28;45486;-70
2022/02/04 17:06:45;;;;;;;;;0.00;0.00;;;;;;;;5052928;28;45434;-70
2022/02/04 17:11:46;;;;;;;;;2.00;2.00;;;;;;;;5052749;28;45548;-70
2022/02/04 17:14:12;;;;;;;;;5.25;4.25;;;;;;;;5051674;28;45405;-71
2022/02/04 17:16:42;;;;;;;;;5.00;4.50;;;;;;;;5051619;28;45616;-70
2022/02/04 17:19:08;;;;;;;;;4.50;4.50;;;;;;;;5053944;28;45696;-70
2022/02/04 17:21:35;;;;;;;;;4.75;3.50;;;;;;;;5056374;28;45307;-70
2022/02/04 17:24:00;;;;;;;;;1.00;1.00;;;;;;;;5055765;28;45252;-71
2022/02/04 17:26:25;;;;;;;;;1.00;1.00;;;;;;;;5037100;28;45452;-71
2022/02/04 17:28:51;;;;;;;;;5.00;5.00;;;;;;;;5037268;28;47948;-71
2022/02/04 17:31:17;;;;;;;;;2.00;2.00;;;;;;;;5056125;28;45392;-71
2022/02/04 17:33:44;;;;;;;;;2.50;2.50;;;;;;;;5055984;28;45519;-70
2022/02/04 17:36:10;;;;;;;;;3.00;3.00;;;;;;;;5054733;28;45497;-71
2022/02/04 17:38:36;;;;;;;;;2.25;2.25;;;;;;;;5056121;28;45968;-72
2022/02/04 17:41:02;;;;;;;;;11.25;11.25;;;;;;;;5056136;28;45567;-71
2022/02/04 17:43:27;;;;;;;;;3.25;1.75;;;;;;;;5055998;28;45370;-70
2022/02/04 17:45:52;;;;;;;;;0.25;0.25;;;;;;;;5056104;28;45762;-71
2022/02/04 17:48:22;;;;;;;;;2.75;2.00;;;;;;;;5056796;28;46082;-71
2022/02/04 17:53:26;;;;;;;;;2.00;2.00;;;;;;;;5054890;28;47152;-72
2022/02/04 17:56:01;;;;;;;;;3.00;2.00;;;;;;;;5054444;28;45472;-72
2022/02/04 18:01:16;;;;;;;;;2.75;2.75;;;;;;;;5055582;28;47732;-71
2022/02/04 18:08:54;;;;;;;;;2.00;1.25;;;;;;;;5055487;28;45883;-71
2022/02/04 18:11:19;;;;;;;;;4.00;2.50;;;;;;;;5055311;28;45371;-71
2022/02/04 18:13:44;;;;;;;;;2.00;2.00;;;;;;;;5055579;28;45509;-71
2022/02/04 18:16:10;;;;;;;;;5.00;2.50;;;;;;;;5055672;28;45469;-71
2022/02/04 18:18:36;;;;;;;;;1.75;1.75;;;;;;;;5055556;28;47165;-71
2022/02/04 18:21:02;;;;;;;;;2.00;2.00;;;;;;;;5055212;28;45452;-70
2022/02/04 18:23:27;;;;;;;;;2.00;2.00;;;;;;;;5055735;28;45368;-71
2022/02/04 18:25:53;;;;;;;;;4.00;2.50;;;;;;;;5054919;28;45334;-71
2022/02/04 18:28:18;;;;;;;;;3.50;3.00;;;;;;;;5055606;28;45554;-71
2022/02/04 18:30:44;;;;;;;;;2.00;2.00;;;;;;;;5054094;28;45540;-70
2022/02/04 18:33:10;;;;;;;;;2.50;2.50;;;;;;;;5056020;28;45383;-71
2022/02/04 18:35:37;;;;;;;;;1.25;1.25;;;;;;;;5054923;28;45495;-71
2022/02/04 18:39:12;;;;;;;;;0.75;0.00;;;;;;;;5054748;28;45482;-70
2022/02/04 18:41:22;;;;;;;;;4.00;2.50;;;;;;;;5045801;28;45612;-70
2022/02/04 18:49:16;;;;;;;;;5.00;5.00;;;;;;;;5039980;28;45736;-69
2022/02/04 18:51:54;;;;;;;;;3.00;3.00;;;;;;;;5055445;28;45472;-69
2022/02/04 18:59:19;;;;;;;;;3.25;3.25;;;;;;;;5055090;28;45578;-70
2022/02/04 19:01:46;;;;;;;;;16.25;15.00;;;;;;;;5054928;28;45461;-70
2022/02/04 19:04:16;;;;;;;;;10.00;8.25;;;;;;;;5054904;28;45466;-70
2022/02/04 19:06:46;;;;;;;;;9.25;6.00;;;;;;;;5055186;28;45299;-71
2022/02/04 19:09:12;;;;;;;;;5.00;5.00;;;;;;;;5053099;28;46348;-70
2022/02/04 19:11:42;;;;;;;;;5.00;5.00;;;;;;;;5054502;28;45429;-71
2022/02/04 19:14:14;;;;;;;;;9.00;9.00;;;;;;;;5054727;28;45348;-71
2022/02/04 19:19:16;;;;;;;;;11.75;6.00;;;;;;;;5054002;28;45246;-70
2022/02/04 19:22:03;;;;;;;;;11.50;10.50;;;;;;;;5054945;28;45598;-70
2022/02/04 19:24:32;;;;;;;;;10.00;6.75;;;;;;;;5051448;28;45330;-71
2022/02/04 19:26:57;;;;;;;;;10.00;7.00;;;;;;;;5055025;28;45237;-69
2022/02/04 19:29:24;;;;;;;;;7.25;6.00;;;;;;;;5054967;28;46886;-70
2022/02/04 19:31:53;;;;;;;;;7.75;6.25;;;;;;;;5054882;28;45286;-71
2022/02/04 19:34:18;;;;;;;;;10.00;6.75;;;;;;;;5054922;28;45515;-70
2022/02/04 19:36:45;;;;;;;;;9.00;6.25;;;;;;;;5054930;28;45299;-70
2022/02/04 19:39:10;;;;;;;;;7.75;5.75;;;;;;;;5052308;28;46409;-71
2022/02/04 19:41:35;;;;;;;;;5.00;4.50;;;;;;;;5053473;28;45466;-70
2022/02/04 19:44:01;;;;;;;;;8.25;6.50;;;;;;;;5054214;28;45645;-69
2022/02/04 19:46:32;;;;;;;;;6.00;6.00;;;;;;;;5054455;28;45375;-69
2022/02/04 19:49:01;;;;;;;;;5.00;5.00;;;;;;;;5054539;28;46284;-69
2022/02/04 20:23:51;;;;;;;;;4.00;3.00;;;;;;;;5053809;28;45524;-70
2022/02/04 20:26:18;;;;;;;;;6.00;3.50;;;;;;;;5053091;28;45514;-70
2022/02/04 20:28:44;;;;;;;;;5.00;4.00;;;;;;;;5053385;28;45489;-70
2022/02/04 20:31:09;;;;;;;;;4.00;3.00;;;;;;;;5053670;28;45449;-69
2022/02/04 20:33:34;;;;;;;;;6.50;4.00;;;;;;;;5053582;28;45443;-70
2022/02/04 20:35:59;;;;;;;;;3.25;2.00;;;;;;;;5054117;28;45506;-70
2022/02/04 20:38:31;;;;;;;;;7.50;4.00;;;;;;;;5053405;28;45220;-70
2022/02/04 20:40:58;;;;;;;;;2.50;2.00;;;;;;;;5053691;28;46225;-69
2022/02/04 20:43:30;;;;;;;;;7.25;3.75;;;;;;;;5053589;28;45600;-70
2022/02/04 20:45:56;;;;;;;;;5.50;3.00;;;;;;;;5054119;28;45511;-70
2022/02/04 20:48:21;;;;;;;;;10.00;6.75;;;;;;;;5053940;28;45828;-70
2022/02/04 20:50:47;;;;;;;;;3.75;3.50;;;;;;;;5052751;28;46013;-70
2022/02/04 20:53:12;;;;;;;;;7.75;5.00;;;;;;;;5052587;28;45395;-69
2022/02/04 20:55:39;;;;;;;;;7.75;3.50;;;;;;;;5053638;28;45434;-69
2022/02/04 20:58:05;;;;;;;;;7.00;4.00;;;;;;;;5053731;28;45400;-71
2022/02/04 21:00:31;;;;;;;;;5.00;4.50;;;;;;;;5054647;28;46246;-71
2022/02/04 21:03:00;;;;;;;;;5.75;5.75;;;;;;;;5053487;28;46944;-70
2022/02/04 21:05:37;;;;;;;;;5.75;5.75;;;;;;;;5052916;28;45529;-69
2022/02/04 21:15:56;;;;;;;;;6.25;4.25;;;;;;;;5053995;28;45481;-69
2022/02/04 21:18:21;;;;;;;;;3.75;3.00;;;;;;;;5053816;28;45311;-69
2022/02/04 21:20:46;;;;;;;;;8.50;4.50;;;;;;;;5052736;28;46287;-70
2022/02/04 21:23:11;;;;;;;;;5.00;5.00;;;;;;;;5053473;28;45516;-71
2022/02/04 21:25:37;;;;;;;;;7.00;7.00;;;;;;;;5053889;28;45452;-70
2022/02/04 21:28:07;;;;;;;;;10.75;7.75;;;;;;;;5054656;28;45283;-70
2022/02/04 21:30:32;;;;;;;;;5.75;3.00;;;;;;;;5053783;28;47040;-70
2022/02/04 21:32:59;;;;;;;;;6.50;4.00;;;;;;;;5054014;28;45511;-70
2022/02/04 21:38:11;;;;;;;;;5.50;4.50;;;;;;;;5053765;28;45503;-71
2022/02/04 21:40:36;;;;;;;;;4.25;4.25;;;;;;;;5053398;28;46910;-70
2022/02/04 21:43:03;;;;;;;;;8.25;4.25;;;;;;;;5053513;28;45618;-71
2022/02/04 21:45:29;;;;;;;;;8.00;5.50;;;;;;;;5054645;28;45383;-70
2022/02/04 21:47:58;;;;;;;;;4.00;4.00;;;;;;;;5053055;28;45862;-70
2022/02/04 21:50:24;;;;;;;;;4.00;4.00;;;;;;;;5053215;28;45425;-69